EST,Max TemperatureF,Mean TemperatureF,Min TemperatureF,Max Dew PointF,MeanDew PointF,Min DewpointF,Max Humidity, Mean Humidity, Min Humidity, Max Sea Level PressureIn, Mean Sea Level PressureIn, Min Sea Level PressureIn, Max VisibilityMiles, Mean VisibilityMiles, Min VisibilityMiles, Max Wind SpeedMPH, Mean Wind SpeedMPH, Max Gust SpeedMPH,PrecipitationIn, CloudCover, Events, WindDirDegrees
2013-1-1,39,29,19,30,24,14,93,66,51,30.02,29.92,29.86,15,10,10,15,9,20,0.00,6,,283
2013-1-2,32,28,23,19,14,10,80,62,44,30.18,30.07,30.01,10,10,10,16,7,24,0.00,2,,320
2013-1-3,32,26,19,21,18,14,93,68,48,30.20,30.14,30.06,10,10,10,12,4,18,0.00,3,,262
2013-1-4,37,34,30,23,21,16,69,61,44,30.09,30.03,29.96,10,10,10,18,9,26,0.00,2,,264
2013-1-5,42,33,24,27,21,18,100,66,39,30.28,30.17,30.03,15,10,10,14,8,24,0.00,2,,284
2013-1-6,46,37,28,30,27,21,100,74,43,30.22,30.10,29.98,10,9,2,13,3,20,0.00,6,,262
2013-1-7,44,34,23,30,25,18,100,74,34,30.41,30.25,30.06,10,10,10,12,4,23,0.00,1,,298
2013-1-8,48,34,19,30,24,18,100,87,46,30.43,30.38,30.34,10,10,7,12,1,17,0.00,1,,229
2013-1-9,46,34,21,36,28,19,100,85,66,30.40,30.30,30.15,10,8,4,14,2,18,0.00,2,,243
2013-1-10,48,39,28,32,26,21,100,63,34,30.55,30.44,30.24,10,10,10,15,6,26,0.00,1,,306
2013-1-11,42,34,26,39,32,27,100,92,61,30.55,30.35,30.10,10,7,2,6,1,,0.00,5,Rain,50
2013-1-12,48,44,39,45,43,39,100,98,87,30.17,30.12,30.08,5,3,1,6,0,,0.00,8,,248
2013-1-13,48,45,42,48,44,37,100,98,71,30.15,30.09,30.01,5,1,0,7,1,,0.00,8,Fog,203
2013-1-14,57,48,39,52,42,25,100,85,43,30.30,30.10,29.92,10,6,0,12,2,20,0.00,7,Fog-Rain,346
2013-1-15,39,36,33,36,31,27,100,81,65,30.37,30.27,30.21,10,9,5,8,3,,0.00,8,Rain-Snow,12
2013-1-16,33,32,30,34,32,30,100,97,93,30.22,30.03,29.89,10,4,2,8,4,,0.00,6,Rain-Snow,37
2013-1-17,42,38,33,34,29,25,100,75,53,30.10,30.00,29.92,10,10,10,9,5,21,0.00,4,,281
2013-1-18,33,27,21,27,16,5,86,63,34,30.48,30.28,30.00,15,10,10,16,6,33,0.00,4,Snow,3
2013-1-19,50,36,23,30,22,16,80,62,37,30.39,30.19,29.92,10,10,7,20,5,24,0.00,2,,223
2013-1-20,51,40,28,30,23,10,81,58,20,30.05,29.86,29.70,10,10,7,28,6,47,0.00,1,,261
2013-1-21,30,26,21,28,14,9,93,61,47,30.09,29.99,29.85,10,10,7,13,5,18,0.00,3,,272
2013-1-22,24,18,12,12,4,-4,74,54,33,30.21,30.02,29.84,10,10,7,25,10,38,0.00,3,,288
2013-1-23,17,12,8,9,-1,-6,100,60,35,30.25,30.21,30.17,10,10,10,15,7,23,0.00,1,,287
2013-1-24,23,14,6,9,3,-2,100,68,33,30.42,30.24,30.13,15,10,10,18,3,29,0.00,2,,325
2013-1-25,23,16,10,14,5,0,100,68,43,30.42,30.29,30.07,10,9,1,13,6,22,0.00,3,Snow,285
2013-1-26,26,16,5,10,7,5,100,74,43,30.38,30.17,30.05,10,10,10,14,3,23,0.00,1,,322
2013-1-27,33,22,10,16,11,7,100,71,32,30.54,30.46,30.39,10,10,10,10,3,21,0.00,0,,303
2013-1-28,33,24,15,34,24,14,100,92,69,30.49,30.27,30.01,10,6,1,9,1,,0.00,6,Snow,215
2013-1-29,53,43,33,43,36,25,100,91,43,30.13,30.07,30.00,10,3,0,15,1,18,0.00,8,Fog,124
2013-1-30,62,50,37,59,46,37,100,98,88,30.07,29.75,29.34,10,2,0,17,2,28,0.00,8,Fog-Rain,90
2013-1-31,60,44,28,59,36,10,100,70,36,29.79,29.40,29.05,10,9,2,26,14,44,0.00,5,Rain,240